Time;durP1;ratioP1;P1;durP2;ratioP2;P2;SDS_P1;SDS_P2;PMS_P1;PMS_P2;Temp;Humidity;BMP_temperature;BMP_pressure;BME280_temperature;BME280_humidity;BME280_pressure;Samples;Min_cycle;Max_cycle;Signal;HPM_P1;HPM_P2
2023/11/04 00:02:04;;;;;;;4.50;3.33;;;10.00;99.90;;;;;;5054578;28;20037;-79
2023/11/04 00:04:31;;;;;;;8.27;4.93;;;10.00;99.90;;;;;;5053875;28;20108;-79
2023/11/04 00:06:58;;;;;;;7.05;4.03;;;9.90;99.90;;;;;;5053917;28;20025;-79
2023/11/04 00:09:24;;;;;;;7.88;4.82;;;9.90;99.90;;;;;;5053961;28;20064;-78
2023/11/04 00:11:50;;;;;;;7.60;4.75;;;10.00;99.90;;;;;;5054283;28;20056;-79
2023/11/04 00:14:16;;;;;;;6.75;4.03;;;9.90;99.90;;;;;;5054353;28;20111;-80
2023/11/04 00:16:48;;;;;;;6.22;3.92;;;9.90;99.90;;;;;;5054541;28;20088;-78
2023/11/04 00:19:14;;;;;;;7.23;4.30;;;10.00;99.90;;;;;;5054322;28;20025;-79
2023/11/04 00:21:41;;;;;;;5.23;3.93;;;9.90;99.90;;;;;;5054335;28;20084;-79
2023/11/04 00:24:14;;;;;;;3.92;2.75;;;9.90;99.90;;;;;;5054186;28;20044;-79
2023/11/04 00:26:39;;;;;;;4.28;2.55;;;9.80;99.90;;;;;;5054224;28;20103;-78
2023/11/04 00:29:05;;;;;;;2.60;1.30;;;9.80;99.90;;;;;;5054367;28;20056;-78
2023/11/04 00:31:33;;;;;;;2.17;1.20;;;9.80;99.90;;;;;;5036043;28;20032;-78
2023/11/04 01:29:14;;;;;;;3.83;1.73;;;9.50;99.90;;;;;;5046747;28;20048;-79
2023/11/04 01:31:43;;;;;;;3.10;2.13;;;9.50;99.90;;;;;;5051054;28;20060;-79
2023/11/04 01:34:14;;;;;;;3.45;1.98;;;9.50;99.90;;;;;;5053165;28;20040;-79
2023/11/04 01:36:41;;;;;;;2.43;1.80;;;9.50;99.90;;;;;;5051807;28;20114;-78
2023/11/04 01:39:08;;;;;;;4.87;2.10;;;9.50;99.90;;;;;;5052712;28;20460;-79
2023/11/04 01:41:36;;;;;;;4.87;2.30;;;9.50;99.90;;;;;;5051427;28;20056;-80
2023/11/04 01:44:02;;;;;;;8.03;2.17;;;9.40;99.90;;;;;;5052889;28;20055;-78
2023/11/04 01:46:28;;;;;;;2.37;1.73;;;9.40;99.90;;;;;;5053059;28;20055;-79
2023/11/04 01:48:55;;;;;;;5.90;1.87;;;9.40;99.90;;;;;;5053008;28;20082;-79
2023/11/04 01:51:21;;;;;;;7.63;2.30;;;9.50;99.90;;;;;;5051579;28;20488;-78
2023/11/04 01:53:50;;;;;;;5.83;2.00;;;9.40;99.90;;;;;;5052692;28;20092;-79
2023/11/04 01:56:24;;;;;;;2.63;1.93;;;9.40;99.90;;;;;;5052858;28;20482;-79
2023/11/04 01:58:53;;;;;;;2.97;2.00;;;9.40;99.90;;;;;;5050355;28;20037;-78
2023/11/04 02:01:21;;;;;;;3.30;1.83;;;9.40;99.90;;;;;;5070165;28;20041;-78
2023/11/04 02:03:46;;;;;;;4.33;1.70;;;9.40;99.90;;;;;;5070026;28;20044;-79
2023/11/04 02:06:12;;;;;;;3.37;1.80;;;9.40;99.90;;;;;;5072289;28;20029;-79
2023/11/04 02:08:38;;;;;;;2.60;2.00;;;9.40;99.90;;;;;;5072861;28;20029;-79
2023/11/04 02:11:05;;;;;;;2.83;1.60;;;9.40;99.90;;;;;;5072795;28;20503;-79
2023/11/04 02:13:31;;;;;;;2.80;2.00;;;9.40;99.90;;;;;;5072528;28;20082;-79
2023/11/04 02:16:04;;;;;;;4.10;2.00;;;9.30;99.90;;;;;;5072471;28;20044;-78
2023/11/04 02:18:30;;;;;;;2.67;1.93;;;9.30;99.90;;;;;;5072912;28;20547;-79
2023/11/04 02:20:59;;;;;;;5.70;2.33;;;9.20;99.90;;;;;;5072021;28;20037;-78
2023/11/04 02:23:29;;;;;;;2.77;2.10;;;9.20;99.90;;;;;;5072211;28;20396;-78
2023/11/04 02:25:58;;;;;;;2.83;2.30;;;9.30;99.90;;;;;;5072423;28;20029;-79
2023/11/04 02:28:24;;;;;;;6.77;2.60;;;9.20;99.90;;;;;;5072602;28;20476;-78
2023/11/04 02:30:50;;;;;;;5.27;2.20;;;9.20;99.90;;;;;;5058078;28;20040;-78
2023/11/04 02:33:16;;;;;;;3.60;2.40;;;9.20;99.90;;;;;;5076218;28;20443;-80
2023/11/04 02:35:45;;;;;;;3.47;2.63;;;9.20;99.90;;;;;;5058085;28;20057;-78
2023/11/04 02:38:11;;;;;;;4.87;2.70;;;9.20;99.90;;;;;;5076264;28;20503;-78
2023/11/04 02:40:38;;;;;;;4.33;2.00;;;9.20;99.90;;;;;;5075562;28;20047;-79
2023/11/04 02:43:04;;;;;;;5.90;2.77;;;9.20;99.90;;;;;;5075715;28;20115;-78
2023/11/04 02:45:34;;;;;;;4.67;3.40;;;9.20;99.90;;;;;;5076051;28;20150;-79
2023/11/04 02:48:01;;;;;;;4.23;2.90;;;9.20;99.90;;;;;;5076054;28;20035;-78
2023/11/04 02:50:28;;;;;;;4.33;2.97;;;9.20;99.90;;;;;;5075777;28;20066;-78
2023/11/04 02:52:53;;;;;;;3.43;2.70;;;9.20;99.90;;;;;;5075754;28;20448;-79
2023/11/04 02:55:20;;;;;;;6.20;3.30;;;9.10;99.90;;;;;;5075703;28;20056;-78
2023/11/04 02:57:47;;;;;;;8.57;3.00;;;9.10;99.90;;;;;;5075854;28;20037;-79
2023/11/04 03:00:14;;;;;;;4.57;3.47;;;9.20;99.90;;;;;;5075691;28;20063;-79
2023/11/04 03:02:44;;;;;;;4.93;2.70;;;9.20;99.90;;;;;;5057873;28;20033;-78
2023/11/04 03:05:10;;;;;;;5.47;3.03;;;9.10;99.90;;;;;;5075724;28;20091;-78
2023/11/04 03:07:37;;;;;;;5.80;3.37;;;9.10;99.90;;;;;;5075586;28;20504;-79
2023/11/04 03:10:04;;;;;;;5.27;3.30;;;9.20;99.90;;;;;;5075541;28;20064;-79
2023/11/04 03:12:31;;;;;;;4.07;2.83;;;9.10;99.90;;;;;;5075507;28;20048;-79
2023/11/04 03:15:00;;;;;;;3.87;2.80;;;9.10;99.90;;;;;;5057450;28;20040;-79
2023/11/04 03:17:27;;;;;;;4.93;2.93;;;9.10;99.90;;;;;;5075512;28;20047;-79
2023/11/04 03:19:53;;;;;;;3.63;2.90;;;9.10;99.90;;;;;;5075498;28;20056;-78
2023/11/04 03:22:19;;;;;;;4.73;3.00;;;9.10;99.90;;;;;;5057493;28;20114;-79
2023/11/04 03:24:45;;;;;;;7.23;3.07;;;9.10;99.90;;;;;;5075389;28;20125;-77
2023/11/04 03:27:12;;;;;;;6.70;2.90;;;9.10;99.90;;;;;;5075211;28;20036;-78
2023/11/04 03:29:39;;;;;;;4.23;2.93;;;9.10;99.90;;;;;;5075098;28;20052;-78
2023/11/04 03:32:05;;;;;;;6.40;3.10;;;9.10;99.90;;;;;;5075464;28;20032;-77
2023/11/04 03:34:40;;;;;;;3.43;2.87;;;9.20;99.90;;;;;;5075209;28;20066;-78
2023/11/04 03:37:06;;;;;;;5.20;2.90;;;9.20;99.90;;;;;;5075069;28;20041;-78
2023/11/04 03:39:38;;;;;;;5.50;2.80;;;9.10;99.90;;;;;;5074453;28;20090;-78
2023/11/04 03:42:07;;;;;;;6.28;2.90;;;9.20;99.90;;;;;;5075038;28;20039;-79
2023/11/04 03:44:36;;;;;;;5.33;3.00;;;9.20;99.90;;;;;;5074976;28;20040;-79
2023/11/04 03:47:02;;;;;;;5.13;3.00;;;9.20;99.90;;;;;;5075077;28;20464;-78
2023/11/04 03:49:28;;;;;;;5.20;2.90;;;9.20;99.90;;;;;;5074559;28;20115;-79
2023/11/04 03:51:56;;;;;;;7.00;2.90;;;9.10;99.90;;;;;;5074693;28;20037;-77
2023/11/04 03:54:23;;;;;;;8.33;3.00;;;9.20;99.90;;;;;;5074934;28;20032;-78
2023/11/04 03:56:48;;;;;;;6.40;3.73;;;9.20;99.90;;;;;;5074766;28;20039;-78
2023/11/04 03:59:15;;;;;;;5.77;2.90;;;9.20;99.90;;;;;;5074825;28;20032;-78
2023/11/04 04:01:41;;;;;;;7.20;2.70;;;9.20;99.90;;;;;;5074209;28;20040;-77
2023/11/04 04:04:07;;;;;;;3.93;2.60;;;9.20;99.90;;;;;;5074215;28;20049;-79
2023/11/04 04:06:33;;;;;;;5.00;2.50;;;9.20;99.90;;;;;;5056752;28;20032;-78
2023/11/04 04:08:59;;;;;;;6.63;3.00;;;9.20;99.90;;;;;;5074267;28;20037;-78
2023/11/04 04:11:25;;;;;;;4.07;2.80;;;9.30;99.90;;;;;;5074333;28;20047;-78
2023/11/04 04:13:51;;;;;;;4.23;2.63;;;9.20;99.90;;;;;;5074384;28;20071;-79
2023/11/04 04:16:17;;;;;;;9.27;2.97;;;9.30;99.90;;;;;;5074370;28;20366;-78
2023/11/04 04:18:43;;;;;;;7.13;3.00;;;9.30;99.90;;;;;;5074124;28;20542;-79
2023/11/04 04:21:16;;;;;;;5.47;3.07;;;9.30;99.90;;;;;;5074498;28;20387;-79
2023/11/04 04:23:46;;;;;;;3.80;2.42;;;9.30;99.90;;;;;;5074011;28;20500;-78
2023/11/04 04:26:22;;;;;;;5.23;3.07;;;9.30;99.90;;;;;;5074287;28;20024;-79
2023/11/04 04:28:48;;;;;;;5.60;2.83;;;9.30;99.90;;;;;;5073831;28;20028;-79
2023/11/04 04:31:14;;;;;;;4.60;2.53;;;9.30;99.90;;;;;;5073876;28;20102;-78
2023/11/04 04:33:41;;;;;;;8.47;2.70;;;9.30;99.90;;;;;;5073938;28;20037;-79
2023/11/04 04:36:08;;;;;;;6.20;3.00;;;9.30;99.90;;;;;;5073856;28;20112;-79
2023/11/04 04:38:38;;;;;;;5.47;2.70;;;9.20;99.90;;;;;;5073777;28;20028;-78
2023/11/04 04:41:05;;;;;;;4.70;2.77;;;9.30;99.90;;;;;;5074043;28;20422;-78
2023/11/04 04:43:31;;;;;;;5.00;2.50;;;9.20;99.90;;;;;;5074025;28;20045;-78
2023/11/04 04:45:57;;;;;;;5.60;2.13;;;9.20;99.90;;;;;;5073515;28;20056;-78
2023/11/04 04:48:33;;;;;;;2.27;1.40;;;9.20;99.90;;;;;;5074203;28;20036;-78
2023/11/04 04:51:03;;;;;;;4.70;2.43;;;9.20;99.90;;;;;;5073247;28;20036;-77
2023/11/04 04:53:29;;;;;;;2.30;1.73;;;9.20;99.90;;;;;;5055761;28;20043;-77
2023/11/04 04:55:57;;;;;;;5.47;2.40;;;9.20;99.90;;;;;;5073723;28;20032;-78
2023/11/04 04:58:23;;;;;;;4.40;1.83;;;9.30;99.90;;;;;;5073722;28;20039;-79
2023/11/04 05:00:49;;;;;;;6.23;1.70;;;9.30;99.90;;;;;;5055494;28;20029;-78
2023/11/04 05:03:15;;;;;;;4.70;1.83;;;9.30;99.90;;;;;;5073150;28;20389;-78
2023/11/04 05:05:41;;;;;;;5.07;1.90;;;9.30;99.90;;;;;;5073365;28;20054;-78
2023/11/04 05:08:09;;;;;;;2.50;1.20;;;9.20;99.90;;;;;;5073049;28;20481;-79
2023/11/04 05:10:35;;;;;;;2.03;0.93;;;9.30;99.90;;;;;;5073257;28;20043;-78
2023/11/04 05:13:04;;;;;;;3.03;1.57;;;9.30;99.90;;;;;;5072329;28;20032;-78
2023/11/04 05:15:30;;;;;;;6.80;2.33;;;9.30;99.90;;;;;;5073100;28;20459;-79
2023/11/04 05:17:57;;;;;;;8.10;2.10;;;9.30;99.90;;;;;;5073102;28;20107;-79
2023/11/04 05:20:25;;;;;;;6.70;2.10;;;9.30;99.90;;;;;;5073308;28;20112;-78
2023/11/04 05:22:51;;;;;;;7.23;2.23;;;9.30;99.90;;;;;;5073379;28;20033;-78
2023/11/04 05:25:22;;;;;;;5.47;1.80;;;9.30;99.90;;;;;;5073381;28;20564;-79
2023/11/04 05:27:48;;;;;;;6.07;2.03;;;9.30;99.90;;;;;;5072878;28;20037;-79
2023/11/04 05:30:23;;;;;;;4.27;2.10;;;9.30;99.90;;;;;;5072461;28;20082;-78
2023/11/04 05:32:49;;;;;;;4.27;1.77;;;9.20;99.90;;;;;;5073015;28;20036;-78
2023/11/04 05:35:18;;;;;;;6.37;1.97;;;9.20;99.90;;;;;;5073145;28;20417;-79
2023/11/04 05:37:45;;;;;;;3.17;1.90;;;9.20;99.90;;;;;;5072823;28;20036;-78
2023/11/04 05:40:11;;;;;;;3.70;1.97;;;9.20;99.90;;;;;;5073020;28;20063;-78
2023/11/04 05:42:37;;;;;;;4.20;2.10;;;9.20;99.90;;;;;;5073067;28;20530;-79
2023/11/04 05:45:06;;;;;;;6.27;1.90;;;9.20;99.90;;;;;;5073102;28;20036;-78
2023/11/04 05:47:33;;;;;;;4.23;2.57;;;9.20;99.90;;;;;;5073221;28;20032;-79
2023/11/04 05:49:59;;;;;;;7.07;2.50;;;9.20;99.90;;;;;;5073082;28;20029;-78
2023/11/04 05:52:29;;;;;;;7.83;2.03;;;9.20;99.90;;;;;;5072986;28;20396;-79
2023/11/04 05:54:58;;;;;;;3.37;2.10;;;9.20;99.90;;;;;;5072965;28;20052;-79
2023/11/04 05:57:24;;;;;;;6.87;2.47;;;9.10;99.90;;;;;;5073156;28;20403;-79
2023/11/04 05:59:50;;;;;;;5.80;2.37;;;9.20;99.90;;;;;;5072859;28;20037;-77
2023/11/04 06:02:16;;;;;;;2.97;1.80;;;9.20;99.90;;;;;;5073398;28;20039;-79
2023/11/04 06:04:42;;;;;;;5.70;2.30;;;9.20;99.90;;;;;;5076597;28;20041;-79
2023/11/04 06:07:09;;;;;;;10.23;2.30;;;9.20;99.90;;;;;;5058954;28;20032;-77
2023/11/04 06:09:35;;;;;;;3.00;1.80;;;9.10;99.90;;;;;;5076454;28;20033;-78
2023/11/04 06:12:01;;;;;;;3.70;1.67;;;9.10;99.90;;;;;;5076537;28;20078;-79
2023/11/04 06:14:30;;;;;;;3.00;1.73;;;9.20;99.90;;;;;;5076777;28;20040;-79
2023/11/04 06:16:56;;;;;;;6.43;1.70;;;9.20;99.90;;;;;;5076868;28;20035;-78
2023/11/04 06:19:22;;;;;;;8.20;3.50;;;9.10;99.90;;;;;;5076744;28;20033;-79
2023/11/04 06:21:48;;;;;;;6.57;2.33;;;9.20;99.90;;;;;;5078301;28;20071;-78
2023/11/04 06:24:14;;;;;;;6.87;3.20;;;9.10;99.90;;;;;;5077178;28;20071;-78
2023/11/04 06:26:43;;;;;;;3.97;2.13;;;9.10;99.90;;;;;;5076497;28;20449;-79
2023/11/04 06:29:09;;;;;;;7.40;2.33;;;9.10;99.90;;;;;;5076154;28;20036;-79
2023/11/04 06:31:35;;;;;;;4.77;1.97;;;9.10;99.90;;;;;;5076311;28;20392;-78
2023/11/04 06:34:01;;;;;;;7.17;2.07;;;9.10;99.90;;;;;;5076522;28;20377;-78
2023/11/04 06:36:37;;;;;;;5.00;1.80;;;9.00;99.90;;;;;;5076334;28;20031;-78
2023/11/04 06:39:05;;;;;;;4.10;1.47;;;9.00;99.90;;;;;;5075881;28;20474;-75
2023/11/04 06:41:31;;;;;;;2.73;1.53;;;9.00;99.90;;;;;;5076252;28;20036;-78
2023/11/04 06:43:57;;;;;;;5.00;1.97;;;9.00;99.90;;;;;;5075965;28;20519;-76
2023/11/04 06:46:24;;;;;;;10.40;2.10;;;9.00;99.90;;;;;;5075933;28;20050;-75
2023/11/04 06:48:52;;;;;;;4.40;1.87;;;9.10;99.90;;;;;;5076091;28;20472;-74
2023/11/04 06:51:18;;;;;;;5.07;2.20;;;9.10;99.90;;;;;;5075928;28;20029;-76
2023/11/04 06:53:44;;;;;;;4.53;2.30;;;9.20;99.90;;;;;;5075548;28;20060;-75
2023/11/04 06:56:10;;;;;;;5.63;2.10;;;9.10;99.90;;;;;;5075445;28;20060;-75
2023/11/04 06:58:36;;;;;;;6.43;1.90;;;9.10;99.90;;;;;;5075872;28;20082;-75
2023/11/04 07:01:02;;;;;;;5.13;1.60;;;9.10;99.90;;;;;;5075825;28;20078;-75
2023/11/04 07:03:31;;;;;;;3.13;1.70;;;9.10;99.90;;;;;;5075677;28;20043;-76
2023/11/04 07:05:57;;;;;;;5.63;2.10;;;9.20;99.90;;;;;;5075278;28;20266;-75
2023/11/04 07:08:23;;;;;;;2.63;1.63;;;9.20;99.90;;;;;;5075286;28;20036;-74
2023/11/04 07:10:50;;;;;;;4.70;2.40;;;9.30;99.90;;;;;;5074933;28;20028;-76
2023/11/04 07:13:17;;;;;;;3.60;1.60;;;9.30;99.90;;;;;;5074644;28;20036;-76
2023/11/04 07:15:47;;;;;;;5.77;1.83;;;9.40;99.90;;;;;;5073635;28;20050;-75
2023/11/04 07:18:15;;;;;;;4.30;2.00;;;9.50;99.90;;;;;;5074221;28;20385;-76
2023/11/04 07:20:46;;;;;;;2.70;1.70;;;9.60;99.90;;;;;;5056274;28;20068;-76
2023/11/04 07:23:12;;;;;;;3.37;1.73;;;9.60;99.90;;;;;;5057370;28;20085;-75
2023/11/04 07:25:39;;;;;;;4.97;1.93;;;9.70;99.90;;;;;;5075488;28;20029;-77
2023/11/04 07:28:06;;;;;;;4.93;1.70;;;9.80;99.90;;;;;;5075340;28;20036;-75
2023/11/04 07:30:36;;;;;;;3.63;1.90;;;9.80;99.90;;;;;;5074679;28;20493;-76
2023/11/04 07:33:05;;;;;;;2.50;1.60;;;9.90;99.90;;;;;;5073779;28;20045;-79
2023/11/04 07:35:31;;;;;;;8.53;1.67;;;9.90;99.90;;;;;;5072057;28;20378;-78
2023/11/04 07:37:57;;;;;;;7.20;1.30;;;10.00;99.90;;;;;;5072040;28;20044;-77
2023/11/04 07:40:26;;;;;;;2.73;1.10;;;10.00;99.90;;;;;;5074199;28;20064;-77
2023/11/04 07:42:52;;;;;;;5.80;1.40;;;10.10;99.90;;;;;;5057067;28;20032;-78
2023/11/04 07:45:21;;;;;;;3.30;1.10;;;10.20;99.90;;;;;;5074715;28;20504;-80
2023/11/04 07:47:46;;;;;;;2.97;0.93;;;10.30;99.90;;;;;;5074853;28;20033;-78
2023/11/04 07:50:13;;;;;;;4.03;0.80;;;10.40;99.90;;;;;;5074946;28;20039;-80
2023/11/04 07:52:42;;;;;;;2.45;0.80;;;10.50;99.90;;;;;;5073520;28;20108;-79
2023/11/04 07:55:08;;;;;;;1.83;0.82;;;10.50;99.90;;;;;;5071836;28;20396;-76
2023/11/04 07:57:38;;;;;;;4.80;0.85;;;10.60;99.90;;;;;;5071833;28;20028;-75
2023/11/04 08:00:07;;;;;;;1.70;0.70;;;10.70;99.90;;;;;;5073182;28;20044;-76
2023/11/04 08:02:39;;;;;;;3.25;1.00;;;10.70;99.90;;;;;;5073321;28;20024;-76
2023/11/04 08:05:06;;;;;;;4.20;0.90;;;10.80;99.90;;;;;;5071460;28;20048;-76
2023/11/04 08:07:36;;;;;;;3.47;0.90;;;10.80;99.90;;;;;;5071492;28;20052;-75
2023/11/04 08:10:04;;;;;;;6.28;1.00;;;10.90;99.90;;;;;;5073551;28;20036;-74
2023/11/04 08:12:31;;;;;;;2.78;1.00;;;10.90;99.90;;;;;;5073949;28;20078;-77
2023/11/04 08:14:57;;;;;;;1.42;0.73;;;11.00;99.90;;;;;;5073497;28;20025;-75
2023/11/04 08:17:23;;;;;;;3.00;0.75;;;11.00;99.90;;;;;;5073970;28;20052;-78
2023/11/04 08:19:53;;;;;;;2.72;0.77;;;11.10;99.90;;;;;;5073593;28;20036;-79
2023/11/04 08:22:19;;;;;;;2.15;0.73;;;11.10;99.90;;;;;;5073836;28;20032;-79
2023/11/04 08:24:45;;;;;;;2.65;0.93;;;11.20;99.90;;;;;;5073650;28;20115;-77
2023/11/04 08:27:11;;;;;;;1.67;0.77;;;11.30;99.90;;;;;;5073190;28;20098;-83
2023/11/04 08:29:39;;;;;;;6.20;1.50;;;11.30;99.90;;;;;;5073689;28;20039;-73
2023/11/04 08:32:08;;;;;;;3.33;1.30;;;11.30;99.90;;;;;;5073938;28;20031;-75
2023/11/04 08:34:37;;;;;;;3.42;1.70;;;11.40;99.90;;;;;;5073956;28;20037;-75
2023/11/04 08:37:03;;;;;;;4.20;1.50;;;11.50;99.90;;;;;;5073769;28;20459;-75
2023/11/04 08:39:29;;;;;;;3.42;0.77;;;11.50;99.90;;;;;;5073696;28;20396;-75
2023/11/04 08:41:55;;;;;;;2.10;1.00;;;11.50;99.90;;;;;;5073704;28;20029;-75
2023/11/04 08:44:22;;;;;;;4.47;0.80;;;11.60;99.90;;;;;;5073391;28;20050;-75
2023/11/04 08:46:48;;;;;;;2.38;1.00;;;11.60;99.90;;;;;;5073607;28;20033;-75
2023/11/04 08:49:14;;;;;;;4.47;1.00;;;11.60;99.90;;;;;;5073632;28;20044;-75
2023/11/04 08:51:40;;;;;;;4.22;1.38;;;11.70;99.90;;;;;;5071644;28;20032;-75
2023/11/04 08:54:06;;;;;;;3.53;0.80;;;11.80;99.90;;;;;;5065237;28;20571;-75
2023/11/04 08:56:31;;;;;;;2.75;0.80;;;11.80;99.90;;;;;;5052202;28;20033;-75
2023/11/04 08:58:58;;;;;;;4.10;1.30;;;11.80;99.90;;;;;;5037076;28;20048;-75
2023/11/04 09:01:25;;;;;;;1.52;0.70;;;11.90;99.90;;;;;;5072618;28;20033;-75
2023/11/04 09:03:55;;;;;;;2.70;0.98;;;12.00;99.90;;;;;;5071423;28;20385;-74
2023/11/04 09:06:22;;;;;;;2.30;0.80;;;12.00;99.90;;;;;;5054079;28;20165;-75
2023/11/04 09:08:47;;;;;;;4.93;0.90;;;12.10;99.90;;;;;;5055712;28;20044;-75
2023/11/04 09:11:14;;;;;;;2.65;0.98;;;12.20;99.90;;;;;;5052435;28;20033;-75
2023/11/04 09:13:39;;;;;;;8.85;1.15;;;12.20;99.90;;;;;;5052928;28;20036;-75
2023/11/04 09:16:06;;;;;;;3.28;1.20;;;12.30;99.90;;;;;;5052817;28;20029;-75
2023/11/04 09:18:34;;;;;;;4.13;1.10;;;12.30;99.90;;;;;;5052555;28;20048;-75
2023/11/04 09:21:00;;;;;;;4.55;0.90;;;12.40;99.90;;;;;;5052100;28;20434;-75
2023/11/04 09:23:26;;;;;;;1.50;0.80;;;12.50;99.90;;;;;;5034624;28;20087;-75
2023/11/04 09:25:52;;;;;;;1.85;0.82;;;12.50;99.90;;;;;;5052225;28;20408;-75
2023/11/04 09:28:17;;;;;;;5.13;0.90;;;12.60;99.90;;;;;;5052458;28;20029;-75
2023/11/04 09:30:46;;;;;;;2.97;0.80;;;12.70;99.90;;;;;;5052234;28;20732;-75
2023/11/04 09:33:12;;;;;;;2.75;0.90;;;12.70;99.90;;;;;;5052686;28;20035;-75
2023/11/04 09:35:37;;;;;;;3.80;1.17;;;12.80;99.90;;;;;;5052631;28;20033;-75
2023/11/04 09:38:04;;;;;;;1.92;0.80;;;12.80;99.90;;;;;;5052209;28;20029;-75
2023/11/04 09:40:33;;;;;;;3.53;1.00;;;13.00;99.90;;;;;;5052347;28;20036;-75
2023/11/04 09:42:58;;;;;;;3.10;0.98;;;13.10;99.90;;;;;;5052273;28;20033;-75
2023/11/04 09:45:24;;;;;;;4.25;1.13;;;13.10;99.90;;;;;;5052098;28;20124;-75
2023/11/04 09:47:51;;;;;;;4.57;1.20;;;13.20;99.90;;;;;;5052059;28;20096;-75
2023/11/04 09:50:17;;;;;;;6.05;0.93;;;13.30;99.90;;;;;;5052111;28;20033;-75
2023/11/04 09:52:49;;;;;;;3.97;0.95;;;13.30;99.90;;;;;;5051775;28;20040;-74
2023/11/04 09:55:17;;;;;;;2.25;1.00;;;13.40;99.90;;;;;;5052387;28;20040;-76
2023/11/04 09:57:43;;;;;;;3.38;0.80;;;13.40;99.90;;;;;;5052358;28;20021;-76
2023/11/04 10:00:10;;;;;;;4.20;1.00;;;13.50;99.80;;;;;;5034006;28;20457;-75
2023/11/04 10:02:36;;;;;;;2.92;0.73;;;13.50;99.90;;;;;;5051427;28;20033;-75
2023/11/04 10:05:02;;;;;;;4.80;0.90;;;13.60;99.80;;;;;;5051581;28;20041;-74
2023/11/04 10:07:28;;;;;;;3.38;0.82;;;13.70;99.60;;;;;;5051972;28;20040;-75
2023/11/04 10:09:55;;;;;;;5.05;0.93;;;13.70;99.50;;;;;;5051770;28;20036;-74
2023/11/04 10:12:21;;;;;;;2.20;0.68;;;13.80;99.60;;;;;;5051577;28;20489;-75
2023/11/04 10:14:47;;;;;;;2.53;0.90;;;13.80;99.50;;;;;;5051869;28;20072;-75
2023/11/04 10:17:13;;;;;;;7.07;1.23;;;13.80;99.20;;;;;;5052418;28;20036;-74
2023/11/04 10:19:39;;;;;;;6.95;1.48;;;13.90;99.50;;;;;;5052391;28;20064;-74
2023/11/04 10:22:05;;;;;;;3.50;0.90;;;14.00;99.30;;;;;;5052173;28;20075;-75
2023/11/04 10:24:31;;;;;;;10.55;2.05;;;14.00;99.20;;;;;;5052223;28;20049;-75
2023/11/04 10:26:57;;;;;;;2.78;0.85;;;14.10;99.00;;;;;;5052612;28;20347;-75
2023/11/04 10:29:22;;;;;;;4.38;1.20;;;14.20;99.20;;;;;;5051262;28;20162;-75
2023/11/04 10:31:50;;;;;;;2.53;0.65;;;14.20;98.80;;;;;;5032356;28;20048;-74
2023/11/04 10:34:17;;;;;;;2.67;0.80;;;14.30;98.60;;;;;;5032310;28;20037;-75
2023/11/04 10:36:49;;;;;;;4.82;0.90;;;14.40;98.40;;;;;;5032337;28;20034;-75
2023/11/04 10:39:19;;;;;;;3.90;1.10;;;14.40;98.20;;;;;;5031965;28;20052;-75
2023/11/04 10:41:53;;;;;;;4.18;1.00;;;14.50;98.00;;;;;;5032300;28;20111;-74
2023/11/04 10:44:27;;;;;;;5.38;1.00;;;14.50;97.90;;;;;;5032583;28;20045;-75
2023/11/04 10:47:27;;;;;;;3.45;0.70;;;14.50;98.00;;;;;;5031951;28;20060;-75
2023/11/04 10:49:58;;;;;;;2.50;0.90;;;14.40;97.90;;;;;;5033355;28;20038;-75
2023/11/04 10:52:29;;;;;;;4.05;1.38;;;14.40;97.80;;;;;;5035851;28;20026;-74
2023/11/04 10:55:10;;;;;;;4.28;0.90;;;14.40;98.20;;;;;;5036150;28;20022;-74
2023/11/04 10:57:42;;;;;;;4.72;0.90;;;14.50;98.30;;;;;;5036043;28;20029;-75
2023/11/04 11:00:14;;;;;;;9.07;1.17;;;14.60;98.10;;;;;;5035996;28;20502;-75
2023/11/04 11:02:43;;;;;;;2.70;0.67;;;14.60;97.90;;;;;;5036057;28;20040;-75
2023/11/04 11:05:13;;;;;;;4.18;0.80;;;14.60;97.70;;;;;;5035784;28;20314;-75
2023/11/04 11:07:45;;;;;;;5.55;0.95;;;14.70;97.90;;;;;;5035980;28;20108;-75
2023/11/04 11:10:13;;;;;;;3.65;0.88;;;14.80;97.40;;;;;;5036230;28;20448;-75
2023/11/04 11:12:51;;;;;;;6.25;1.10;;;14.80;97.40;;;;;;5035751;28;20120;-75
2023/11/04 11:15:21;;;;;;;6.10;1.40;;;14.80;97.80;;;;;;5035794;28;20029;-75
2023/11/04 11:17:59;;;;;;;2.10;1.02;;;14.80;98.00;;;;;;5035531;28;20392;-75
2023/11/04 11:20:34;;;;;;;3.72;1.00;;;14.80;98.00;;;;;;5035545;28;20033;-74
2023/11/04 11:23:04;;;;;;;2.60;0.90;;;14.70;98.00;;;;;;5035593;28;20057;-75
2023/11/04 11:25:38;;;;;;;3.30;0.98;;;14.70;98.10;;;;;;5035781;28;20037;-75
2023/11/04 11:28:16;;;;;;;5.28;1.20;;;14.60;98.30;;;;;;5035288;28;20402;-75
2023/11/04 11:30:52;;;;;;;6.50;0.95;;;14.60;98.30;;;;;;5045138;28;20090;-75
2023/11/04 11:33:25;;;;;;;3.40;0.85;;;14.60;98.20;;;;;;5054845;28;20039;-74
2023/11/04 11:35:59;;;;;;;4.97;1.25;;;14.50;98.10;;;;;;5054932;28;20412;-75
2023/11/04 11:38:45;;;;;;;4.20;1.00;;;14.60;98.10;;;;;;5054758;28;20039;-75
2023/11/04 11:41:15;;;;;;;3.22;1.00;;;14.60;98.20;;;;;;5054355;28;20039;-75
2023/11/04 11:43:46;;;;;;;3.60;0.70;;;14.60;98.00;;;;;;5054578;28;20056;-75
2023/11/04 11:46:13;;;;;;;6.18;2.08;;;14.70;97.90;;;;;;5054798;28;20083;-75
2023/11/04 11:48:44;;;;;;;3.88;1.10;;;14.80;97.70;;;;;;5054934;28;20063;-75
2023/11/04 11:51:11;;;;;;;3.42;0.80;;;14.90;97.80;;;;;;5054779;28;20065;-75
2023/11/04 11:53:45;;;;;;;5.93;1.60;;;15.00;97.20;;;;;;5054369;28;20056;-75
2023/11/04 11:56:18;;;;;;;8.55;1.38;;;15.20;95.80;;;;;;5036821;28;20041;-76
2023/11/04 11:58:47;;;;;;;3.53;0.98;;;15.20;95.80;;;;;;5054569;28;20037;-75
2023/11/04 12:01:19;;;;;;;7.03;1.58;;;15.30;95.90;;;;;;5036629;28;20061;-75
2023/11/04 12:03:45;;;;;;;14.65;1.65;;;15.30;96.10;;;;;;5054497;28;20508;-75
2023/11/04 12:06:11;;;;;;;5.82;1.20;;;15.20;96.30;;;;;;5054447;28;20432;-75
2023/11/04 12:08:37;;;;;;;7.63;1.35;;;15.20;95.70;;;;;;5054402;28;20477;-75
2023/11/04 12:11:04;;;;;;;7.80;1.10;;;15.20;94.80;;;;;;5054434;28;20381;-75
2023/11/04 12:13:29;;;;;;;5.15;1.00;;;15.10;94.80;;;;;;5052599;28;20033;-75
2023/11/04 12:15:58;;;;;;;7.45;1.10;;;15.20;95.20;;;;;;5051595;28;20071;-75
2023/11/04 12:18:26;;;;;;;3.17;0.98;;;15.20;95.30;;;;;;5052752;28;20067;-75
2023/11/04 12:20:52;;;;;;;9.32;1.30;;;15.10;95.80;;;;;;5054254;28;20366;-75
2023/11/04 12:23:18;;;;;;;11.10;1.00;;;15.20;95.50;;;;;;5053763;28;20124;-75
2023/11/04 12:25:47;;;;;;;6.95;1.10;;;15.20;95.50;;;;;;5053872;28;20432;-75
2023/11/04 12:28:13;;;;;;;5.13;1.10;;;15.20;95.80;;;;;;5053643;28;20029;-75
2023/11/04 12:30:39;;;;;;;6.38;1.10;;;15.20;95.30;;;;;;5064250;28;20084;-75
2023/11/04 12:33:05;;;;;;;3.20;0.90;;;15.20;95.30;;;;;;5073989;28;20033;-75
2023/11/04 12:35:35;;;;;;;4.43;1.30;;;15.20;95.60;;;;;;5074051;28;20484;-73
2023/11/04 12:38:02;;;;;;;9.93;2.03;;;15.30;95.80;;;;;;5072324;28;20059;-75
2023/11/04 12:40:29;;;;;;;6.35;1.20;;;15.30;95.70;;;;;;5070873;28;20082;-73
2023/11/04 12:43:04;;;;;;;6.95;1.10;;;15.30;95.50;;;;;;5070668;28;20123;-72
2023/11/04 12:45:30;;;;;;;7.32;1.30;;;15.30;95.50;;;;;;5072356;28;20086;-72
2023/11/04 12:47:56;;;;;;;14.82;1.73;;;15.30;94.80;;;;;;5073479;28;20115;-73
2023/11/04 12:50:22;;;;;;;10.23;1.10;;;15.30;95.50;;;;;;5073758;28;20071;-73
2023/11/04 12:52:52;;;;;;;6.47;0.90;;;15.40;95.90;;;;;;5073369;28;20500;-72
2023/11/04 12:55:18;;;;;;;3.65;0.63;;;15.40;94.90;;;;;;5073448;28;20033;-74
2023/11/04 12:57:43;;;;;;;1.27;0.60;;;15.40;93.00;;;;;;5073631;28;20043;-75
2023/11/04 13:00:11;;;;;;;3.75;1.45;;;15.40;92.40;;;;;;5073113;28;20503;-73
2023/11/04 13:02:37;;;;;;;2.85;0.57;;;15.40;92.20;;;;;;5065627;28;20433;-75
2023/11/04 13:05:04;;;;;;;3.15;0.57;;;15.40;91.50;;;;;;5053649;28;20048;-76
2023/11/04 13:07:30;;;;;;;4.32;0.80;;;15.30;91.70;;;;;;5053158;28;20393;-75
2023/11/04 13:09:59;;;;;;;2.30;0.70;;;15.20;92.60;;;;;;5053477;28;20140;-73
2023/11/04 13:12:24;;;;;;;3.42;1.13;;;15.20;92.80;;;;;;5053021;28;20061;-73
2023/11/04 13:14:50;;;;;;;3.67;0.60;;;15.10;92.80;;;;;;5053349;28;20103;-72
2023/11/04 13:17:19;;;;;;;2.50;0.65;;;15.10;93.40;;;;;;5053010;28;20473;-72
2023/11/04 13:19:45;;;;;;;2.83;0.90;;;15.00;92.70;;;;;;5053006;28;20040;-72
2023/11/04 13:22:12;;;;;;;3.45;0.68;;;15.00;92.80;;;;;;5053243;28;20392;-72
2023/11/04 13:24:38;;;;;;;2.97;0.60;;;14.90;92.90;;;;;;5052735;28;20041;-73
2023/11/04 13:27:04;;;;;;;1.60;0.50;;;14.90;93.10;;;;;;5053009;28;20538;-72
2023/11/04 13:29:30;;;;;;;3.38;0.65;;;14.90;93.40;;;;;;5052651;28;20476;-73
2023/11/04 13:31:59;;;;;;;4.07;1.02;;;14.90;94.00;;;;;;5052838;28;20553;-72
2023/11/04 13:34:25;;;;;;;1.48;0.63;;;14.90;94.20;;;;;;5053109;28;20132;-73
2023/11/04 13:36:53;;;;;;;3.50;0.60;;;15.00;93.60;;;;;;5052917;28;20035;-72
2023/11/04 13:39:40;;;;;;;4.68;0.55;;;15.00;93.70;;;;;;5052574;28;20397;-74
2023/11/04 13:42:06;;;;;;;4.25;0.45;;;15.00;92.90;;;;;;5053028;28;20331;-72
2023/11/04 13:44:32;;;;;;;2.45;0.65;;;15.00;91.80;;;;;;5053118;28;20451;-73
2023/11/04 13:46:58;;;;;;;1.67;0.38;;;15.00;91.80;;;;;;5052742;28;20036;-72
2023/11/04 13:49:23;;;;;;;2.92;0.63;;;15.00;92.60;;;;;;5052502;28;20037;-72
2023/11/04 13:51:49;;;;;;;4.13;0.70;;;15.00;93.10;;;;;;5052634;28;20033;-72